createdAt,value
2022-08-26T17:49:15.515Z,66.32
2022-08-26T17:51:42.175Z,66.70
2022-08-26T17:54:09.259Z,66.60
2022-08-26T17:56:46.237Z,65.72
2022-08-26T17:59:17.069Z,65.69
2022-08-26T18:01:44.744Z,65.67
2022-08-26T18:04:12.063Z,65.45
2022-08-26T18:06:40.083Z,65.63
2022-08-26T18:09:06.876Z,65.84
2022-08-26T18:11:37.056Z,65.33
2022-08-26T18:14:03.956Z,65.48
2022-08-26T18:16:34.182Z,66.58
2022-08-26T18:19:01.053Z,66.75
2022-08-26T18:21:28.059Z,67.39
2022-08-26T18:23:55.059Z,67.34
2022-08-26T18:26:27.280Z,68.03
2022-08-26T18:28:54.375Z,68.36
2022-08-26T18:31:21.478Z,69.23
2022-08-26T18:33:56.659Z,68.91
2022-08-26T18:36:29.530Z,69.80
2022-08-26T18:38:57.515Z,69.15
2022-08-26T18:41:28.270Z,70.11
2022-08-26T18:43:55.844Z,69.39
2022-08-26T18:46:25.314Z,69.76
2022-08-26T18:48:57.314Z,70.03
2022-08-26T18:51:26.651Z,70.45
2022-08-26T18:53:53.722Z,69.74
2022-08-26T18:56:20.425Z,69.97
2022-08-26T18:58:47.799Z,70.19
2022-08-26T19:01:16.202Z,70.01
2022-08-26T19:03:43.308Z,69.92
2022-08-26T19:06:15.416Z,70.05
2022-08-26T19:08:44.569Z,69.92
2022-08-26T19:11:12.884Z,69.75
2022-08-26T19:13:42.842Z,70.61
2022-08-26T19:16:23.441Z,72.75
2022-08-26T19:18:51.651Z,72.61
2022-08-26T19:21:19.548Z,73.63
2022-08-26T19:23:46.349Z,74.02
2022-08-26T19:26:13.843Z,74.51
2022-08-26T19:28:41.508Z,75.74
2022-08-26T19:31:12.194Z,76.45
2022-08-26T19:33:41.870Z,76.85
2022-08-26T19:36:15.056Z,77.28
2022-08-26T19:38:42.921Z,77.05
2022-08-26T19:41:14.830Z,77.05
2022-08-26T19:43:42.443Z,76.87
2022-08-26T19:46:11.340Z,76.84
2022-08-26T19:48:38.048Z,76.96
2022-08-26T19:51:04.843Z,76.96
2022-08-26T19:53:35.168Z,76.93
2022-08-26T19:56:01.746Z,77.17
2022-08-26T19:58:28.573Z,77.42
2022-08-26T20:00:55.491Z,77.07
2022-08-26T20:03:23.275Z,77.39
2022-08-26T20:05:49.989Z,77.50
2022-08-26T20:08:21.972Z,77.80
2022-08-26T20:10:50.109Z,78.01
2022-08-26T20:13:18.813Z,78.15
2022-08-26T20:15:45.414Z,78.03
2022-08-26T20:18:32.395Z,77.90
2022-08-26T20:21:39.041Z,77.98
2022-08-26T20:24:09.190Z,78.35
2022-08-26T20:26:38.992Z,78.14
2022-08-26T20:29:07.054Z,77.77
2022-08-26T20:31:36.963Z,78.44
2022-08-26T20:34:05.318Z,79.75
2022-08-26T20:36:32.622Z,80.77
2022-08-26T20:39:01.138Z,80.10
2022-08-26T20:41:28.654Z,80.89
2022-08-26T20:43:56.347Z,80.38
2022-08-26T20:46:25.041Z,80.04
2022-08-26T20:48:53.706Z,80.56
2022-08-26T20:51:22.934Z,81.39
2022-08-26T20:53:52.482Z,80.56
2022-08-26T20:56:24.881Z,80.39
2022-08-26T20:58:53.577Z,81.29
2022-08-26T21:01:24.105Z,80.81
2022-08-26T21:03:53.927Z,80.77
2022-08-26T21:06:25.365Z,79.93
2022-08-26T21:08:52.955Z,80.06
2022-08-26T21:11:19.947Z,79.71
2022-08-26T21:14:04.310Z,79.65
2022-08-26T21:16:31.546Z,80.45
2022-08-26T21:19:04.521Z,80.03
2022-08-26T21:21:31.586Z,80.18
2022-08-26T21:23:58.316Z,80.75
2022-08-26T21:26:26.818Z,81.32
2022-08-26T21:28:53.827Z,80.72
2022-08-26T21:31:22.683Z,80.93
2022-08-26T21:33:58.346Z,80.82
2022-08-26T21:36:25.078Z,84.10
2022-08-26T21:38:51.632Z,81.45
2022-08-26T21:41:21.457Z,80.89
2022-08-26T21:43:50.097Z,80.97
2022-08-26T21:46:19.683Z,80.85
2022-08-26T21:48:57.653Z,80.99
2022-08-26T21:51:26.917Z,81.16
2022-08-26T21:53:55.669Z,80.82
2022-08-26T21:56:24.837Z,81.17
2022-08-26T21:58:52.469Z,81.51
2022-08-26T22:01:21.690Z,81.11
2022-08-26T22:03:51.450Z,81.31
2022-08-26T22:06:21.933Z,81.29
2022-08-26T22:08:50.735Z,81.65
2022-08-26T22:11:18.945Z,81.55
2022-08-26T22:13:47.349Z,81.78
2022-08-26T22:16:15.155Z,81.86
2022-08-26T22:18:45.959Z,82.21
2022-08-26T22:21:20.867Z,82.38
2022-08-26T22:23:47.985Z,83.03
2022-08-26T22:26:25.441Z,83.64
2022-08-26T22:28:58.615Z,84.41
2022-08-26T22:31:29.008Z,84.61
2022-08-26T22:34:12.237Z,85.06
2022-08-26T22:36:44.224Z,84.73
2022-08-26T22:39:18.396Z,85.17
2022-08-26T22:41:45.323Z,85.66
2022-08-26T22:44:12.166Z,85.80
2022-08-26T22:46:41.437Z,85.73
2022-08-26T22:49:10.054Z,86.33
2022-08-26T22:51:36.787Z,85.91
2022-08-26T22:54:10.386Z,85.98
2022-08-26T22:56:39.064Z,86.59
2022-08-26T22:59:07.820Z,86.69
2022-08-26T23:01:36.952Z,86.90
2022-08-26T23:04:04.933Z,86.70
2022-08-26T23:06:31.463Z,87.03
2022-08-26T23:09:06.733Z,87.13
2022-08-26T23:11:34.053Z,87.62
2022-08-26T23:14:02.849Z,87.39
2022-08-26T23:16:39.743Z,87.77
2022-08-26T23:19:10.986Z,87.75
2022-08-26T23:21:38.750Z,88.05
2022-08-26T23:24:07.467Z,87.97
2022-08-26T23:26:35.476Z,88.14
2022-08-26T23:29:02.701Z,88.45
2022-08-26T23:31:31.352Z,88.67
2022-08-26T23:34:16.427Z,88.68
2022-08-26T23:36:44.134Z,89.26
2022-08-26T23:39:13.454Z,89.19
2022-08-26T23:41:40.089Z,89.28
2022-08-26T23:44:15.213Z,90.00
2022-08-26T23:46:41.783Z,90.98
2022-08-26T23:49:08.358Z,91.00
2022-08-26T23:52:07.242Z,90.24
2022-08-26T23:54:34.061Z,91.25
2022-08-26T23:57:00.657Z,91.73
2022-08-26T23:59:35.270Z,92.70
